sensor_id;sensor_type;location;lat;lon;timestamp;temperature;humidity
83327;DHT22;73250;55.594;13.020;2023-12-22T00:02:03;22.40;35.90
83327;DHT22;73250;55.594;13.020;2023-12-22T00:04:30;22.50;36.00
83327;DHT22;73250;55.594;13.020;2023-12-22T00:06:58;22.50;35.90
83327;DHT22;73250;55.594;13.020;2023-12-22T00:09:25;22.50;35.90
83327;DHT22;73250;55.594;13.020;2023-12-22T00:11:51;22.50;35.90
83327;DHT22;73250;55.594;13.020;2023-12-22T00:14:18;22.40;35.80
83327;DHT22;73250;55.594;13.020;2023-12-22T00:16:44;22.40;35.90
83327;DHT22;73250;55.594;13.020;2023-12-22T00:19:11;22.40;35.80
83327;DHT22;73250;55.594;13.020;2023-12-22T00:21:38;22.40;35.90
83327;DHT22;73250;55.594;13.020;2023-12-22T00:24:06;22.40;35.80
83327;DHT22;73250;55.594;13.020;2023-12-22T00:26:33;22.40;35.70
83327;DHT22;73250;55.594;13.020;2023-12-22T00:28:59;22.40;35.70
83327;DHT22;73250;55.594;13.020;2023-12-22T00:31:26;22.40;35.70
83327;DHT22;73250;55.594;13.020;2023-12-22T00:33:52;22.40;35.70
83327;DHT22;73250;55.594;13.020;2023-12-22T00:36:19;22.40;35.70
83327;DHT22;73250;55.594;13.020;2023-12-22T00:38:49;22.40;35.70
83327;DHT22;73250;55.594;13.020;2023-12-22T00:41:17;22.40;35.60
83327;DHT22;73250;55.594;13.020;2023-12-22T00:43:44;22.40;35.70
83327;DHT22;73250;55.594;13.020;2023-12-22T00:46:11;22.40;35.60
83327;DHT22;73250;55.594;13.020;2023-12-22T00:48:37;22.40;35.60
83327;DHT22;73250;55.594;13.020;2023-12-22T00:51:05;22.40;35.60
83327;DHT22;73250;55.594;13.020;2023-12-22T00:53:32;22.40;35.50
83327;DHT22;73250;55.594;13.020;2023-12-22T00:55:59;22.40;35.50
83327;DHT22;73250;55.594;13.020;2023-12-22T00:58:27;22.40;35.40
83327;DHT22;73250;55.594;13.020;2023-12-22T01:00:54;22.40;35.50
83327;DHT22;73250;55.594;13.020;2023-12-22T01:03:20;22.40;35.40
83327;DHT22;73250;55.594;13.020;2023-12-22T01:05:46;22.40;35.50
83327;DHT22;73250;55.594;13.020;2023-12-22T01:08:13;22.40;35.40
83327;DHT22;73250;55.594;13.020;2023-12-22T01:10:40;22.40;35.40
83327;DHT22;73250;55.594;13.020;2023-12-22T01:13:06;22.40;35.40
83327;DHT22;73250;55.594;13.020;2023-12-22T01:15:34;22.30;35.30
83327;DHT22;73250;55.594;13.020;2023-12-22T01:18:01;22.40;35.30
83327;DHT22;73250;55.594;13.020;2023-12-22T01:20:28;22.40;35.30
83327;DHT22;73250;55.594;13.020;2023-12-22T01:22:54;22.30;35.20
83327;DHT22;73250;55.594;13.020;2023-12-22T01:25:21;22.40;35.20
83327;DHT22;73250;55.594;13.020;2023-12-22T01:27:49;22.30;35.20
83327;DHT22;73250;55.594;13.020;2023-12-22T01:30:17;22.40;35.20
83327;DHT22;73250;55.594;13.020;2023-12-22T01:32:45;22.40;35.20
83327;DHT22;73250;55.594;13.020;2023-12-22T01:35:12;22.40;35.20
83327;DHT22;73250;55.594;13.020;2023-12-22T01:37:39;22.40;35.20
83327;DHT22;73250;55.594;13.020;2023-12-22T01:40:07;22.30;35.00
83327;DHT22;73250;55.594;13.020;2023-12-22T01:42:34;22.30;35.00
83327;DHT22;73250;55.594;13.020;2023-12-22T01:45:01;22.30;35.00
83327;DHT22;73250;55.594;13.020;2023-12-22T01:47:27;22.30;35.00
83327;DHT22;73250;55.594;13.020;2023-12-22T01:49:55;22.30;35.00
83327;DHT22;73250;55.594;13.020;2023-12-22T01:52:22;22.30;34.90
83327;DHT22;73250;55.594;13.020;2023-12-22T01:54:49;22.30;34.90
83327;DHT22;73250;55.594;13.020;2023-12-22T01:57:17;22.30;34.90
83327;DHT22;73250;55.594;13.020;2023-12-22T01:59:45;22.30;34.90
83327;DHT22;73250;55.594;13.020;2023-12-22T02:02:12;22.30;34.90
83327;DHT22;73250;55.594;13.020;2023-12-22T02:04:39;22.30;34.90
83327;DHT22;73250;55.594;13.020;2023-12-22T02:07:09;22.30;34.80
83327;DHT22;73250;55.594;13.020;2023-12-22T02:09:36;22.30;34.80
83327;DHT22;73250;55.594;13.020;2023-12-22T02:12:03;22.30;34.80
83327;DHT22;73250;55.594;13.020;2023-12-22T02:14:30;22.30;34.80
83327;DHT22;73250;55.594;13.020;2023-12-22T02:17:05;22.30;34.70
83327;DHT22;73250;55.594;13.020;2023-12-22T02:19:41;22.30;34.70
83327;DHT22;73250;55.594;13.020;2023-12-22T02:22:11;22.30;34.60
83327;DHT22;73250;55.594;13.020;2023-12-22T02:24:40;22.30;34.60
83327;DHT22;73250;55.594;13.020;2023-12-22T02:27:15;22.30;34.60
83327;DHT22;73250;55.594;13.020;2023-12-22T02:29:46;22.30;34.60
83327;DHT22;73250;55.594;13.020;2023-12-22T02:32:20;22.30;34.60
83327;DHT22;73250;55.594;13.020;2023-12-22T02:34:49;22.30;34.60
83327;DHT22;73250;55.594;13.020;2023-12-22T02:37:18;22.30;34.60
83327;DHT22;73250;55.594;13.020;2023-12-22T02:39:47;22.30;34.60
83327;DHT22;73250;55.594;13.020;2023-12-22T02:42:13;22.30;34.60
83327;DHT22;73250;55.594;13.020;2023-12-22T02:44:40;22.30;34.60
83327;DHT22;73250;55.594;13.020;2023-12-22T02:47:07;22.30;34.60
83327;DHT22;73250;55.594;13.020;2023-12-22T02:49:33;22.30;34.50
83327;DHT22;73250;55.594;13.020;2023-12-22T02:52:00;22.30;34.60
83327;DHT22;73250;55.594;13.020;2023-12-22T02:54:27;22.20;34.50
83327;DHT22;73250;55.594;13.020;2023-12-22T02:56:56;22.30;34.50
83327;DHT22;73250;55.594;13.020;2023-12-22T02:59:24;22.20;34.50
83327;DHT22;73250;55.594;13.020;2023-12-22T03:01:51;22.20;34.50
83327;DHT22;73250;55.594;13.020;2023-12-22T03:04:17;22.20;34.50
83327;DHT22;73250;55.594;13.020;2023-12-22T03:06:44;22.20;34.40
83327;DHT22;73250;55.594;13.020;2023-12-22T03:09:11;22.20;34.50
83327;DHT22;73250;55.594;13.020;2023-12-22T03:11:37;22.20;34.50
83327;DHT22;73250;55.594;13.020;2023-12-22T03:14:05;22.20;34.50
83327;DHT22;73250;55.594;13.020;2023-12-22T03:16:32;22.20;34.40
83327;DHT22;73250;55.594;13.020;2023-12-22T03:18:58;22.20;34.50
83327;DHT22;73250;55.594;13.020;2023-12-22T03:21:25;22.20;34.40
83327;DHT22;73250;55.594;13.020;2023-12-22T03:23:52;22.20;34.40
83327;DHT22;73250;55.594;13.020;2023-12-22T03:26:18;22.20;34.30
83327;DHT22;73250;55.594;13.020;2023-12-22T03:28:45;22.20;34.40
83327;DHT22;73250;55.594;13.020;2023-12-22T03:31:13;22.20;34.40
83327;DHT22;73250;55.594;13.020;2023-12-22T03:33:39;22.20;34.40
83327;DHT22;73250;55.594;13.020;2023-12-22T03:36:06;22.20;34.40
83327;DHT22;73250;55.594;13.020;2023-12-22T03:38:33;22.20;34.50
83327;DHT22;73250;55.594;13.020;2023-12-22T03:41:00;22.20;34.40
83327;DHT22;73250;55.594;13.020;2023-12-22T03:43:26;22.20;34.50
83327;DHT22;73250;55.594;13.020;2023-12-22T03:45:53;22.20;34.50
83327;DHT22;73250;55.594;13.020;2023-12-22T03:48:21;22.20;34.50
83327;DHT22;73250;55.594;13.020;2023-12-22T03:50:48;22.20;34.50
83327;DHT22;73250;55.594;13.020;2023-12-22T03:53:15;22.20;34.40
83327;DHT22;73250;55.594;13.020;2023-12-22T03:55:41;22.20;34.40
83327;DHT22;73250;55.594;13.020;2023-12-22T03:58:08;22.20;34.40
83327;DHT22;73250;55.594;13.020;2023-12-22T04:00:35;22.20;34.30
83327;DHT22;73250;55.594;13.020;2023-12-22T04:03:02;22.10;34.30
83327;DHT22;73250;55.594;13.020;2023-12-22T04:05:30;22.20;34.30
83327;DHT22;73250;55.594;13.020;2023-12-22T04:07:57;22.20;34.30
83327;DHT22;73250;55.594;13.020;2023-12-22T04:10:24;22.20;34.30
83327;DHT22;73250;55.594;13.020;2023-12-22T04:12:50;22.20;34.30
83327;DHT22;73250;55.594;13.020;2023-12-22T04:15:17;22.20;34.30
83327;DHT22;73250;55.594;13.020;2023-12-22T04:17:44;22.20;34.30
83327;DHT22;73250;55.594;13.020;2023-12-22T04:20:10;22.20;34.30
83327;DHT22;73250;55.594;13.020;2023-12-22T04:22:39;22.10;34.20
83327;DHT22;73250;55.594;13.020;2023-12-22T04:25:06;22.20;34.20
83327;DHT22;73250;55.594;13.020;2023-12-22T04:27:33;22.20;34.30
83327;DHT22;73250;55.594;13.020;2023-12-22T04:29:59;22.20;34.20
83327;DHT22;73250;55.594;13.020;2023-12-22T04:32:26;22.20;34.30
83327;DHT22;73250;55.594;13.020;2023-12-22T04:34:53;22.10;34.20
83327;DHT22;73250;55.594;13.020;2023-12-22T04:37:19;22.10;34.20
83327;DHT22;73250;55.594;13.020;2023-12-22T04:39:47;22.10;34.20
83327;DHT22;73250;55.594;13.020;2023-12-22T04:42:14;22.10;34.20
83327;DHT22;73250;55.594;13.020;2023-12-22T04:44:40;22.10;34.20
83327;DHT22;73250;55.594;13.020;2023-12-22T04:47:07;22.10;34.20
83327;DHT22;73250;55.594;13.020;2023-12-22T04:49:34;22.10;34.20
83327;DHT22;73250;55.594;13.020;2023-12-22T04:52:00;22.10;34.20
83327;DHT22;73250;55.594;13.020;2023-12-22T04:54:27;22.10;34.20
83327;DHT22;73250;55.594;13.020;2023-12-22T04:56:55;22.10;34.20
83327;DHT22;73250;55.594;13.020;2023-12-22T04:59:21;22.10;34.20
83327;DHT22;73250;55.594;13.020;2023-12-22T05:01:48;22.10;34.20
83327;DHT22;73250;55.594;13.020;2023-12-22T05:04:15;22.10;34.20
83327;DHT22;73250;55.594;13.020;2023-12-22T05:06:42;22.10;34.20
83327;DHT22;73250;55.594;13.020;2023-12-22T05:09:10;22.10;34.20
83327;DHT22;73250;55.594;13.020;2023-12-22T05:11:37;22.10;34.20
83327;DHT22;73250;55.594;13.020;2023-12-22T05:14:05;22.10;34.20
83327;DHT22;73250;55.594;13.020;2023-12-22T05:16:32;22.10;34.20
83327;DHT22;73250;55.594;13.020;2023-12-22T05:18:58;22.10;34.20
83327;DHT22;73250;55.594;13.020;2023-12-22T05:21:25;22.10;34.20
83327;DHT22;73250;55.594;13.020;2023-12-22T05:23:53;22.10;34.20
83327;DHT22;73250;55.594;13.020;2023-12-22T05:26:20;22.10;34.20
83327;DHT22;73250;55.594;13.020;2023-12-22T05:28:47;22.10;34.20
83327;DHT22;73250;55.594;13.020;2023-12-22T05:31:16;22.10;34.20
83327;DHT22;73250;55.594;13.020;2023-12-22T05:33:43;22.10;34.20
83327;DHT22;73250;55.594;13.020;2023-12-22T05:36:12;22.10;34.20
83327;DHT22;73250;55.594;13.020;2023-12-22T05:38:39;22.10;34.20
83327;DHT22;73250;55.594;13.020;2023-12-22T05:41:05;22.10;34.20
83327;DHT22;73250;55.594;13.020;2023-12-22T05:43:32;22.10;34.20
83327;DHT22;73250;55.594;13.020;2023-12-22T05:45:59;22.10;34.20
83327;DHT22;73250;55.594;13.020;2023-12-22T05:48:27;22.10;34.20
83327;DHT22;73250;55.594;13.020;2023-12-22T05:50:56;22.10;34.20
83327;DHT22;73250;55.594;13.020;2023-12-22T05:53:22;22.10;34.20
83327;DHT22;73250;55.594;13.020;2023-12-22T05:55:49;22.10;34.20
83327;DHT22;73250;55.594;13.020;2023-12-22T05:58:16;22.10;34.20
83327;DHT22;73250;55.594;13.020;2023-12-22T06:00:42;22.10;34.20
83327;DHT22;73250;55.594;13.020;2023-12-22T06:03:09;22.00;34.20
83327;DHT22;73250;55.594;13.020;2023-12-22T06:05:37;22.00;34.30
83327;DHT22;73250;55.594;13.020;2023-12-22T06:08:04;22.10;34.30
83327;DHT22;73250;55.594;13.020;2023-12-22T06:10:31;22.10;34.30
83327;DHT22;73250;55.594;13.020;2023-12-22T06:12:57;22.00;34.30
83327;DHT22;73250;55.594;13.020;2023-12-22T06:15:26;22.00;34.30
83327;DHT22;73250;55.594;13.020;2023-12-22T06:17:53;22.00;34.30
83327;DHT22;73250;55.594;13.020;2023-12-22T06:20:19;22.00;34.30
83327;DHT22;73250;55.594;13.020;2023-12-22T06:22:47;22.00;34.30
83327;DHT22;73250;55.594;13.020;2023-12-22T06:25:14;22.10;34.40
83327;DHT22;73250;55.594;13.020;2023-12-22T06:27:41;22.00;34.40
83327;DHT22;73250;55.594;13.020;2023-12-22T06:30:08;22.00;34.40
83327;DHT22;73250;55.594;13.020;2023-12-22T06:32:35;22.00;34.40
83327;DHT22;73250;55.594;13.020;2023-12-22T06:35:05;22.00;34.50
83327;DHT22;73250;55.594;13.020;2023-12-22T06:37:32;22.00;34.40
83327;DHT22;73250;55.594;13.020;2023-12-22T06:40:00;22.00;34.40
83327;DHT22;73250;55.594;13.020;2023-12-22T06:42:27;22.00;34.40
83327;DHT22;73250;55.594;13.020;2023-12-22T06:44:54;22.10;34.40
83327;DHT22;73250;55.594;13.020;2023-12-22T06:47:20;22.00;34.40
83327;DHT22;73250;55.594;13.020;2023-12-22T06:49:47;22.00;34.40
83327;DHT22;73250;55.594;13.020;2023-12-22T06:52:14;22.00;34.30
83327;DHT22;73250;55.594;13.020;2023-12-22T06:54:41;22.00;34.40
83327;DHT22;73250;55.594;13.020;2023-12-22T06:57:10;22.00;34.30
83327;DHT22;73250;55.594;13.020;2023-12-22T06:59:37;22.00;34.30
83327;DHT22;73250;55.594;13.020;2023-12-22T07:02:05;22.00;34.40
83327;DHT22;73250;55.594;13.020;2023-12-22T07:04:32;22.00;34.40
83327;DHT22;73250;55.594;13.020;2023-12-22T07:06:59;22.00;34.50
83327;DHT22;73250;55.594;13.020;2023-12-22T07:09:32;22.00;34.50
83327;DHT22;73250;55.594;13.020;2023-12-22T07:11:59;22.00;34.60
83327;DHT22;73250;55.594;13.020;2023-12-22T07:14:28;22.00;34.60
83327;DHT22;73250;55.594;13.020;2023-12-22T07:16:54;22.00;34.60
83327;DHT22;73250;55.594;13.020;2023-12-22T07:19:23;22.00;34.60
83327;DHT22;73250;55.594;13.020;2023-12-22T07:21:50;22.00;34.60
83327;DHT22;73250;55.594;13.020;2023-12-22T07:24:16;22.00;34.60
83327;DHT22;73250;55.594;13.020;2023-12-22T07:26:44;22.00;34.60
83327;DHT22;73250;55.594;13.020;2023-12-22T07:29:10;22.00;34.70
83327;DHT22;73250;55.594;13.020;2023-12-22T07:31:38;22.00;34.70
83327;DHT22;73250;55.594;13.020;2023-12-22T07:34:05;22.00;34.60
83327;DHT22;73250;55.594;13.020;2023-12-22T07:36:32;22.00;34.60
83327;DHT22;73250;55.594;13.020;2023-12-22T07:38:58;22.00;34.70
83327;DHT22;73250;55.594;13.020;2023-12-22T07:41:26;22.00;34.60
83327;DHT22;73250;55.594;13.020;2023-12-22T07:43:52;22.00;34.70
83327;DHT22;73250;55.594;13.020;2023-12-22T07:46:19;22.00;34.70
83327;DHT22;73250;55.594;13.020;2023-12-22T07:48:48;22.00;35.30
83327;DHT22;73250;55.594;13.020;2023-12-22T07:51:15;22.00;34.60
83327;DHT22;73250;55.594;13.020;2023-12-22T07:53:42;22.00;34.60
83327;DHT22;73250;55.594;13.020;2023-12-22T07:56:12;22.00;34.60
83327;DHT22;73250;55.594;13.020;2023-12-22T07:58:39;21.90;34.60
83327;DHT22;73250;55.594;13.020;2023-12-22T08:01:06;22.00;34.60
83327;DHT22;73250;55.594;13.020;2023-12-22T08:03:33;22.00;34.60
83327;DHT22;73250;55.594;13.020;2023-12-22T08:06:01;22.00;34.60
83327;DHT22;73250;55.594;13.020;2023-12-22T08:08:27;22.00;34.60
83327;DHT22;73250;55.594;13.020;2023-12-22T08:10:54;21.90;34.60
83327;DHT22;73250;55.594;13.020;2023-12-22T08:13:21;21.90;34.70
83327;DHT22;73250;55.594;13.020;2023-12-22T08:15:47;21.90;34.70
83327;DHT22;73250;55.594;13.020;2023-12-22T08:18:14;22.00;34.80
83327;DHT22;73250;55.594;13.020;2023-12-22T08:20:41;22.00;34.70
83327;DHT22;73250;55.594;13.020;2023-12-22T08:23:09;22.00;34.80
83327;DHT22;73250;55.594;13.020;2023-12-22T08:25:37;22.00;34.70
83327;DHT22;73250;55.594;13.020;2023-12-22T08:28:04;22.00;34.70
83327;DHT22;73250;55.594;13.020;2023-12-22T08:30:31;22.00;34.80
83327;DHT22;73250;55.594;13.020;2023-12-22T08:32:59;22.00;34.80
83327;DHT22;73250;55.594;13.020;2023-12-22T08:35:25;22.00;34.80
83327;DHT22;73250;55.594;13.020;2023-12-22T08:37:52;21.90;34.80
83327;DHT22;73250;55.594;13.020;2023-12-22T08:40:20;21.90;34.90
83327;DHT22;73250;55.594;13.020;2023-12-22T08:42:51;21.90;34.90
83327;DHT22;73250;55.594;13.020;2023-12-22T08:45:20;21.90;34.90
83327;DHT22;73250;55.594;13.020;2023-12-22T08:47:46;21.90;35.10
83327;DHT22;73250;55.594;13.020;2023-12-22T08:50:13;21.90;35.10
83327;DHT22;73250;55.594;13.020;2023-12-22T08:52:40;22.00;35.10
83327;DHT22;73250;55.594;13.020;2023-12-22T08:55:07;22.00;35.10
83327;DHT22;73250;55.594;13.020;2023-12-22T08:57:35;22.00;35.30
83327;DHT22;73250;55.594;13.020;2023-12-22T09:00:02;22.00;35.50
83327;DHT22;73250;55.594;13.020;2023-12-22T09:02:30;22.00;35.40
83327;DHT22;73250;55.594;13.020;2023-12-22T09:04:56;22.00;35.40
83327;DHT22;73250;55.594;13.020;2023-12-22T09:07:23;22.00;35.50
83327;DHT22;73250;55.594;13.020;2023-12-22T09:09:50;22.00;35.70
83327;DHT22;73250;55.594;13.020;2023-12-22T09:12:16;22.00;35.60
83327;DHT22;73250;55.594;13.020;2023-12-22T09:14:44;22.00;35.80
83327;DHT22;73250;55.594;13.020;2023-12-22T09:17:11;22.10;35.80
83327;DHT22;73250;55.594;13.020;2023-12-22T09:19:37;22.10;35.90
83327;DHT22;73250;55.594;13.020;2023-12-22T09:22:04;22.10;36.30
83327;DHT22;73250;55.594;13.020;2023-12-22T09:24:31;22.10;36.00
83327;DHT22;73250;55.594;13.020;2023-12-22T09:26:58;22.10;36.00
83327;DHT22;73250;55.594;13.020;2023-12-22T09:29:28;22.10;36.00
83327;DHT22;73250;55.594;13.020;2023-12-22T09:31:56;22.10;36.10
83327;DHT22;73250;55.594;13.020;2023-12-22T09:34:22;22.10;36.00
83327;DHT22;73250;55.594;13.020;2023-12-22T09:36:55;22.10;36.10
83327;DHT22;73250;55.594;13.020;2023-12-22T09:39:20;22.10;36.20
83327;DHT22;73250;55.594;13.020;2023-12-22T09:41:49;22.10;36.20
83327;DHT22;73250;55.594;13.020;2023-12-22T09:44:18;22.20;36.20
83327;DHT22;73250;55.594;13.020;2023-12-22T09:46:46;22.20;36.10
83327;DHT22;73250;55.594;13.020;2023-12-22T09:49:16;22.20;36.10
83327;DHT22;73250;55.594;13.020;2023-12-22T09:51:43;22.20;36.10
83327;DHT22;73250;55.594;13.020;2023-12-22T09:54:10;22.10;36.00
83327;DHT22;73250;55.594;13.020;2023-12-22T09:56:39;22.20;36.00
83327;DHT22;73250;55.594;13.020;2023-12-22T09:59:09;22.10;36.00
83327;DHT22;73250;55.594;13.020;2023-12-22T10:01:38;22.20;35.90
83327;DHT22;73250;55.594;13.020;2023-12-22T10:04:05;22.20;36.00
83327;DHT22;73250;55.594;13.020;2023-12-22T10:06:33;22.20;36.00
83327;DHT22;73250;55.594;13.020;2023-12-22T10:09:01;22.20;36.20
83327;DHT22;73250;55.594;13.020;2023-12-22T10:11:32;22.20;36.00
83327;DHT22;73250;55.594;13.020;2023-12-22T10:13:59;22.20;35.90
83327;DHT22;73250;55.594;13.020;2023-12-22T10:16:27;22.20;36.00
83327;DHT22;73250;55.594;13.020;2023-12-22T10:18:54;22.20;36.10
83327;DHT22;73250;55.594;13.020;2023-12-22T10:21:21;22.20;36.30
83327;DHT22;73250;55.594;13.020;2023-12-22T10:23:49;22.20;36.20
83327;DHT22;73250;55.594;13.020;2023-12-22T10:26:16;22.20;36.20
83327;DHT22;73250;55.594;13.020;2023-12-22T10:28:43;22.20;36.20
83327;DHT22;73250;55.594;13.020;2023-12-22T10:31:09;22.20;36.20
83327;DHT22;73250;55.594;13.020;2023-12-22T10:33:36;22.20;36.20
83327;DHT22;73250;55.594;13.020;2023-12-22T10:36:03;22.20;36.10
83327;DHT22;73250;55.594;13.020;2023-12-22T10:38:32;22.20;36.10
83327;DHT22;73250;55.594;13.020;2023-12-22T10:41:01;22.30;36.10
83327;DHT22;73250;55.594;13.020;2023-12-22T10:43:28;22.30;36.00
83327;DHT22;73250;55.594;13.020;2023-12-22T10:45:55;22.20;35.90
83327;DHT22;73250;55.594;13.020;2023-12-22T10:48:22;22.30;35.90
83327;DHT22;73250;55.594;13.020;2023-12-22T10:50:49;22.30;36.10
83327;DHT22;73250;55.594;13.020;2023-12-22T10:53:16;22.30;36.10
83327;DHT22;73250;55.594;13.020;2023-12-22T10:55:42;22.30;36.10
83327;DHT22;73250;55.594;13.020;2023-12-22T10:58:10;22.30;36.40
83327;DHT22;73250;55.594;13.020;2023-12-22T11:00:37;22.30;36.30
83327;DHT22;73250;55.594;13.020;2023-12-22T11:03:06;22.30;36.20
83327;DHT22;73250;55.594;13.020;2023-12-22T11:05:36;22.30;35.90
83327;DHT22;73250;55.594;13.020;2023-12-22T11:08:08;22.30;36.10
83327;DHT22;73250;55.594;13.020;2023-12-22T11:10:36;22.30;36.10
83327;DHT22;73250;55.594;13.020;2023-12-22T11:13:09;22.30;36.10
83327;DHT22;73250;55.594;13.020;2023-12-22T11:15:37;22.30;36.10
83327;DHT22;73250;55.594;13.020;2023-12-22T11:18:06;22.30;35.80
83327;DHT22;73250;55.594;13.020;2023-12-22T11:20:34;22.30;36.00
83327;DHT22;73250;55.594;13.020;2023-12-22T11:23:02;22.40;35.90
83327;DHT22;73250;55.594;13.020;2023-12-22T11:25:31;22.30;35.90
83327;DHT22;73250;55.594;13.020;2023-12-22T11:27:59;22.30;35.50
83327;DHT22;73250;55.594;13.020;2023-12-22T11:30:28;22.40;35.70
83327;DHT22;73250;55.594;13.020;2023-12-22T11:32:56;22.30;36.30
83327;DHT22;73250;55.594;13.020;2023-12-22T11:35:23;22.40;35.70
83327;DHT22;73250;55.594;13.020;2023-12-22T11:37:50;22.40;35.80
83327;DHT22;73250;55.594;13.020;2023-12-22T11:40:18;22.40;36.00
83327;DHT22;73250;55.594;13.020;2023-12-22T11:42:49;22.40;36.00
83327;DHT22;73250;55.594;13.020;2023-12-22T11:45:17;22.40;35.70
83327;DHT22;73250;55.594;13.020;2023-12-22T11:47:46;22.40;35.70
83327;DHT22;73250;55.594;13.020;2023-12-22T11:50:28;22.40;35.60
83327;DHT22;73250;55.594;13.020;2023-12-22T11:52:55;22.40;36.00
83327;DHT22;73250;55.594;13.020;2023-12-22T11:58:33;22.40;35.90
83327;DHT22;73250;55.594;13.020;2023-12-22T12:01:02;22.40;35.90
83327;DHT22;73250;55.594;13.020;2023-12-22T12:03:31;22.40;35.80
83327;DHT22;73250;55.594;13.020;2023-12-22T12:06:16;22.40;35.70
83327;DHT22;73250;55.594;13.020;2023-12-22T12:08:43;22.40;35.70
83327;DHT22;73250;55.594;13.020;2023-12-22T12:11:10;22.40;35.60
83327;DHT22;73250;55.594;13.020;2023-12-22T12:13:42;22.40;35.70
83327;DHT22;73250;55.594;13.020;2023-12-22T12:16:10;22.40;35.70
83327;DHT22;73250;55.594;13.020;2023-12-22T12:18:39;22.40;35.70
83327;DHT22;73250;55.594;13.020;2023-12-22T12:21:07;22.40;35.60
83327;DHT22;73250;55.594;13.020;2023-12-22T12:23:34;22.40;35.50
83327;DHT22;73250;55.594;13.020;2023-12-22T12:26:01;22.40;35.50
83327;DHT22;73250;55.594;13.020;2023-12-22T12:28:31;22.40;35.40
83327;DHT22;73250;55.594;13.020;2023-12-22T12:30:58;22.40;35.40
83327;DHT22;73250;55.594;13.020;2023-12-22T12:33:26;22.50;35.30
83327;DHT22;73250;55.594;13.020;2023-12-22T12:35:56;22.40;35.40
83327;DHT22;73250;55.594;13.020;2023-12-22T12:38:27;22.50;35.50
83327;DHT22;73250;55.594;13.020;2023-12-22T12:40:57;22.50;35.40
83327;DHT22;73250;55.594;13.020;2023-12-22T12:43:24;22.50;35.40
83327;DHT22;73250;55.594;13.020;2023-12-22T12:45:55;22.50;35.40
83327;DHT22;73250;55.594;13.020;2023-12-22T12:48:21;22.50;35.50
83327;DHT22;73250;55.594;13.020;2023-12-22T12:50:48;22.40;35.40
83327;DHT22;73250;55.594;13.020;2023-12-22T12:53:17;22.50;35.40
83327;DHT22;73250;55.594;13.020;2023-12-22T12:55:44;22.50;35.40
83327;DHT22;73250;55.594;13.020;2023-12-22T12:58:11;22.50;35.40
83327;DHT22;73250;55.594;13.020;2023-12-22T13:00:38;22.50;35.50
83327;DHT22;73250;55.594;13.020;2023-12-22T13:03:05;22.50;35.50
83327;DHT22;73250;55.594;13.020;2023-12-22T13:05:32;22.50;35.50
83327;DHT22;73250;55.594;13.020;2023-12-22T13:08:09;22.50;35.50
83327;DHT22;73250;55.594;13.020;2023-12-22T13:10:38;22.50;35.50
83327;DHT22;73250;55.594;13.020;2023-12-22T13:13:05;22.50;35.50
83327;DHT22;73250;55.594;13.020;2023-12-22T13:15:32;22.50;35.50
83327;DHT22;73250;55.594;13.020;2023-12-22T13:17:59;22.50;35.50
83327;DHT22;73250;55.594;13.020;2023-12-22T13:20:26;22.50;35.60
83327;DHT22;73250;55.594;13.020;2023-12-22T13:22:53;22.50;35.70
83327;DHT22;73250;55.594;13.020;2023-12-22T13:25:20;22.50;35.70
83327;DHT22;73250;55.594;13.020;2023-12-22T13:27:51;22.50;35.90
83327;DHT22;73250;55.594;13.020;2023-12-22T13:30:32;22.50;35.70
83327;DHT22;73250;55.594;13.020;2023-12-22T13:32:59;22.50;35.70
83327;DHT22;73250;55.594;13.020;2023-12-22T13:35:25;22.50;35.90
83327;DHT22;73250;55.594;13.020;2023-12-22T13:37:54;22.50;35.70
83327;DHT22;73250;55.594;13.020;2023-12-22T13:40:21;22.50;35.60
83327;DHT22;73250;55.594;13.020;2023-12-22T13:42:55;22.50;35.50
83327;DHT22;73250;55.594;13.020;2023-12-22T13:45:22;22.50;35.50
83327;DHT22;73250;55.594;13.020;2023-12-22T13:47:49;22.50;35.40
83327;DHT22;73250;55.594;13.020;2023-12-22T13:50:16;22.50;35.30
83327;DHT22;73250;55.594;13.020;2023-12-22T13:52:44;22.50;35.60
83327;DHT22;73250;55.594;13.020;2023-12-22T13:55:11;22.50;35.40
83327;DHT22;73250;55.594;13.020;2023-12-22T13:57:38;22.50;35.40
83327;DHT22;73250;55.594;13.020;2023-12-22T14:00:27;22.50;35.30
83327;DHT22;73250;55.594;13.020;2023-12-22T14:02:54;22.60;35.00
83327;DHT22;73250;55.594;13.020;2023-12-22T14:05:21;22.60;35.50
83327;DHT22;73250;55.594;13.020;2023-12-22T14:07:48;22.60;35.40
83327;DHT22;73250;55.594;13.020;2023-12-22T14:10:15;22.60;35.40
83327;DHT22;73250;55.594;13.020;2023-12-22T14:12:42;22.60;35.30
83327;DHT22;73250;55.594;13.020;2023-12-22T14:15:09;22.50;35.30
83327;DHT22;73250;55.594;13.020;2023-12-22T14:17:37;22.60;35.30
83327;DHT22;73250;55.594;13.020;2023-12-22T14:20:05;22.60;35.40
83327;DHT22;73250;55.594;13.020;2023-12-22T14:22:35;22.60;35.40
83327;DHT22;73250;55.594;13.020;2023-12-22T14:25:01;22.60;35.30
83327;DHT22;73250;55.594;13.020;2023-12-22T14:27:28;22.60;35.30
83327;DHT22;73250;55.594;13.020;2023-12-22T14:29:55;22.60;35.30
83327;DHT22;73250;55.594;13.020;2023-12-22T14:32:22;22.60;35.40
83327;DHT22;73250;55.594;13.020;2023-12-22T14:34:50;22.60;35.30
83327;DHT22;73250;55.594;13.020;2023-12-22T14:37:16;22.60;35.30
83327;DHT22;73250;55.594;13.020;2023-12-22T14:39:43;22.60;35.30
83327;DHT22;73250;55.594;13.020;2023-12-22T14:42:11;22.60;35.30
83327;DHT22;73250;55.594;13.020;2023-12-22T14:44:37;22.60;35.40
83327;DHT22;73250;55.594;13.020;2023-12-22T14:47:04;22.60;35.30
83327;DHT22;73250;55.594;13.020;2023-12-22T14:49:31;22.60;35.30
83327;DHT22;73250;55.594;13.020;2023-12-22T14:51:59;22.60;35.40
83327;DHT22;73250;55.594;13.020;2023-12-22T14:54:26;22.60;35.40
83327;DHT22;73250;55.594;13.020;2023-12-22T14:56:53;22.60;35.30
83327;DHT22;73250;55.594;13.020;2023-12-22T14:59:19;22.60;35.30
83327;DHT22;73250;55.594;13.020;2023-12-22T15:01:46;22.60;35.30
83327;DHT22;73250;55.594;13.020;2023-12-22T15:04:13;22.60;35.30
83327;DHT22;73250;55.594;13.020;2023-12-22T15:06:41;22.60;35.30
83327;DHT22;73250;55.594;13.020;2023-12-22T15:09:10;22.60;35.20
83327;DHT22;73250;55.594;13.020;2023-12-22T15:11:41;22.60;35.30
83327;DHT22;73250;55.594;13.020;2023-12-22T15:14:07;22.60;35.40
83327;DHT22;73250;55.594;13.020;2023-12-22T15:16:38;22.60;35.20
83327;DHT22;73250;55.594;13.020;2023-12-22T15:19:05;22.60;35.10
83327;DHT22;73250;55.594;13.020;2023-12-22T15:21:31;22.60;35.10